HLP weather

Halim Perdanakusuma International Airport
Jakarta, Jakarta Raya, Indonesia

Public forecast

Using degrees Celsius for public forecast. Weather courtesy of forecast.io.

Current aviation weather report (METAR) for Halim Perdanakusuma International Airport

Report is more than 2 hours old.

Retrieved 2019/10/20 12:00 UTC (4 hours ago):

WIHH 201200Z 09008KT 7000 NSW 30/21 Q1009 NOSIG

Aviation forecast (TAF) for Halim Perdanakusuma International Airport

Retrieved 2019/10/20 12:00 UTC (4 hours ago):

TAF WIHH 201100Z 2012/2112 08010KT 6000 FEW022 BECMG 2015/2017 22005KT